sensor_id;sensor_type;location;lat;lon;timestamp;pressure;altitude;pressure_sealevel;temperature;humidity
30081;BME280;16902;50.816;12.828;2023-03-19T00:01:17;97543.56;;;5.51;100.00
30081;BME280;16902;50.816;12.828;2023-03-19T00:06:20;97542.31;;;5.63;100.00
30081;BME280;16902;50.816;12.828;2023-03-19T00:11:23;97534.13;;;5.68;100.00
30081;BME280;16902;50.816;12.828;2023-03-19T00:16:25;97539.22;;;5.60;100.00
30081;BME280;16902;50.816;12.828;2023-03-19T00:21:27;97533.94;;;5.70;100.00
30081;BME280;16902;50.816;12.828;2023-03-19T00:26:32;97527.47;;;5.65;100.00
30081;BME280;16902;50.816;12.828;2023-03-19T00:31:34;97531.22;;;5.71;100.00
30081;BME280;16902;50.816;12.828;2023-03-19T00:36:36;97537.22;;;5.80;100.00
30081;BME280;16902;50.816;12.828;2023-03-19T00:41:38;97548.84;;;6.10;100.00
30081;BME280;16902;50.816;12.828;2023-03-19T00:46:39;97551.41;;;6.02;100.00
30081;BME280;16902;50.816;12.828;2023-03-19T00:51:41;97546.78;;;5.87;100.00
30081;BME280;16902;50.816;12.828;2023-03-19T00:56:45;97532.78;;;5.64;100.00
30081;BME280;16902;50.816;12.828;2023-03-19T01:01:46;97528.88;;;5.52;100.00
30081;BME280;16902;50.816;12.828;2023-03-19T01:06:48;97518.03;;;5.48;100.00
30081;BME280;16902;50.816;12.828;2023-03-19T01:11:50;97512.69;;;5.41;100.00
30081;BME280;16902;50.816;12.828;2023-03-19T01:16:52;97501.38;;;5.16;100.00
30081;BME280;16902;50.816;12.828;2023-03-19T01:21:53;97515.34;;;5.06;100.00
30081;BME280;16902;50.816;12.828;2023-03-19T01:26:57;97517.75;;;4.99;100.00
30081;BME280;16902;50.816;12.828;2023-03-19T01:32:07;97517.03;;;4.89;100.00
30081;BME280;16902;50.816;12.828;2023-03-19T01:37:20;97515.47;;;4.78;100.00
30081;BME280;16902;50.816;12.828;2023-03-19T01:42:22;97515.78;;;4.75;100.00
30081;BME280;16902;50.816;12.828;2023-03-19T01:47:50;97516.94;;;4.81;100.00
30081;BME280;16902;50.816;12.828;2023-03-19T01:53:12;97511.50;;;4.84;100.00
30081;BME280;16902;50.816;12.828;2023-03-19T01:58:24;97510.38;;;4.86;100.00
30081;BME280;16902;50.816;12.828;2023-03-19T02:03:50;97512.59;;;4.81;100.00
30081;BME280;16902;50.816;12.828;2023-03-19T02:09:00;97502.66;;;4.69;100.00
30081;BME280;16902;50.816;12.828;2023-03-19T02:14:02;97498.25;;;4.61;100.00
30081;BME280;16902;50.816;12.828;2023-03-19T02:19:08;97495.97;;;4.58;100.00
30081;BME280;16902;50.816;12.828;2023-03-19T02:24:25;97495.75;;;4.51;100.00
30081;BME280;16902;50.816;12.828;2023-03-19T02:29:37;97496.94;;;4.57;100.00
30081;BME280;16902;50.816;12.828;2023-03-19T02:34:39;97498.00;;;4.54;100.00
30081;BME280;16902;50.816;12.828;2023-03-19T02:44:49;97498.34;;;4.51;100.00
30081;BME280;16902;50.816;12.828;2023-03-19T02:49:51;97501.72;;;4.52;100.00
30081;BME280;16902;50.816;12.828;2023-03-19T02:54:53;97502.81;;;4.49;100.00
30081;BME280;16902;50.816;12.828;2023-03-19T02:59:58;97500.38;;;4.48;100.00
30081;BME280;16902;50.816;12.828;2023-03-19T03:04:59;97508.13;;;4.48;100.00
30081;BME280;16902;50.816;12.828;2023-03-19T03:10:01;97499.66;;;4.37;100.00
30081;BME280;16902;50.816;12.828;2023-03-19T03:15:05;97499.88;;;4.26;100.00
30081;BME280;16902;50.816;12.828;2023-03-19T03:20:08;97501.56;;;4.18;100.00
30081;BME280;16902;50.816;12.828;2023-03-19T03:25:12;97497.94;;;4.10;100.00
30081;BME280;16902;50.816;12.828;2023-03-19T03:30:15;97507.94;;;4.13;100.00
30081;BME280;16902;50.816;12.828;2023-03-19T03:35:17;97509.06;;;4.11;100.00
30081;BME280;16902;50.816;12.828;2023-03-19T03:40:22;97502.34;;;4.00;100.00
30081;BME280;16902;50.816;12.828;2023-03-19T03:45:24;97504.09;;;4.00;100.00
30081;BME280;16902;50.816;12.828;2023-03-19T03:50:26;97503.72;;;3.95;100.00
30081;BME280;16902;50.816;12.828;2023-03-19T03:55:31;97510.69;;;3.84;100.00
30081;BME280;16902;50.816;12.828;2023-03-19T04:00:33;97517.38;;;3.77;100.00
30081;BME280;16902;50.816;12.828;2023-03-19T04:05:35;97521.88;;;3.66;100.00
30081;BME280;16902;50.816;12.828;2023-03-19T04:10:40;97513.25;;;3.57;100.00
30081;BME280;16902;50.816;12.828;2023-03-19T04:15:43;97517.19;;;3.51;100.00
30081;BME280;16902;50.816;12.828;2023-03-19T04:20:46;97519.44;;;3.27;100.00
30081;BME280;16902;50.816;12.828;2023-03-19T04:25:48;97515.41;;;3.24;100.00
30081;BME280;16902;50.816;12.828;2023-03-19T04:30:50;97521.63;;;3.22;100.00
30081;BME280;16902;50.816;12.828;2023-03-19T04:35:53;97525.31;;;3.09;100.00
30081;BME280;16902;50.816;12.828;2023-03-19T04:40:57;97520.84;;;3.02;100.00
30081;BME280;16902;50.816;12.828;2023-03-19T04:45:59;97523.81;;;3.07;100.00
30081;BME280;16902;50.816;12.828;2023-03-19T04:51:02;97526.25;;;3.08;100.00
30081;BME280;16902;50.816;12.828;2023-03-19T04:56:05;97522.31;;;3.04;100.00
30081;BME280;16902;50.816;12.828;2023-03-19T05:01:08;97518.13;;;3.13;100.00
30081;BME280;16902;50.816;12.828;2023-03-19T05:06:45;97520.84;;;3.12;100.00
30081;BME280;16902;50.816;12.828;2023-03-19T05:11:47;97520.03;;;3.11;100.00
30081;BME280;16902;50.816;12.828;2023-03-19T05:16:53;97519.50;;;3.07;100.00
30081;BME280;16902;50.816;12.828;2023-03-19T05:21:55;97525.31;;;3.09;100.00
30081;BME280;16902;50.816;12.828;2023-03-19T05:27:01;97530.03;;;3.14;100.00
30081;BME280;16902;50.816;12.828;2023-03-19T05:32:12;97544.22;;;3.18;100.00
30081;BME280;16902;50.816;12.828;2023-03-19T05:37:15;97539.09;;;3.18;100.00
30081;BME280;16902;50.816;12.828;2023-03-19T05:42:21;97547.34;;;3.22;100.00
30081;BME280;16902;50.816;12.828;2023-03-19T05:47:23;97551.53;;;3.23;100.00
30081;BME280;16902;50.816;12.828;2023-03-19T05:52:28;97550.34;;;3.17;100.00
30081;BME280;16902;50.816;12.828;2023-03-19T05:57:33;97554.81;;;3.25;100.00
30081;BME280;16902;50.816;12.828;2023-03-19T06:02:40;97556.56;;;3.24;100.00
30081;BME280;16902;50.816;12.828;2023-03-19T06:08:01;97552.75;;;3.28;100.00
30081;BME280;16902;50.816;12.828;2023-03-19T06:13:41;97558.38;;;3.51;100.00
30081;BME280;16902;50.816;12.828;2023-03-19T06:18:48;97559.63;;;3.84;100.00
30081;BME280;16902;50.816;12.828;2023-03-19T06:23:50;97559.47;;;4.13;100.00
30081;BME280;16902;50.816;12.828;2023-03-19T06:28:58;97570.44;;;4.61;100.00
30081;BME280;16902;50.816;12.828;2023-03-19T06:33:59;97563.38;;;4.99;100.00
30081;BME280;16902;50.816;12.828;2023-03-19T06:39:12;97573.47;;;5.36;100.00
30081;BME280;16902;50.816;12.828;2023-03-19T06:44:14;97579.13;;;5.65;100.00
30081;BME280;16902;50.816;12.828;2023-03-19T06:49:16;97586.44;;;6.04;100.00
30081;BME280;16902;50.816;12.828;2023-03-19T06:54:18;97592.75;;;6.44;100.00
30081;BME280;16902;50.816;12.828;2023-03-19T06:59:20;97590.56;;;6.82;100.00
30081;BME280;16902;50.816;12.828;2023-03-19T07:04:21;97592.34;;;7.14;100.00
30081;BME280;16902;50.816;12.828;2023-03-19T07:09:23;97600.91;;;7.39;100.00
30081;BME280;16902;50.816;12.828;2023-03-19T07:14:25;97606.91;;;7.56;100.00
30081;BME280;16902;50.816;12.828;2023-03-19T07:19:27;97603.59;;;7.86;100.00
30081;BME280;16902;50.816;12.828;2023-03-19T07:24:28;97604.78;;;8.23;100.00
30081;BME280;16902;50.816;12.828;2023-03-19T07:29:30;97604.31;;;8.59;100.00
30081;BME280;16902;50.816;12.828;2023-03-19T07:34:32;97607.31;;;8.93;100.00
30081;BME280;16902;50.816;12.828;2023-03-19T07:39:33;97612.53;;;9.16;100.00
30081;BME280;16902;50.816;12.828;2023-03-19T07:44:35;97607.66;;;9.36;100.00
30081;BME280;16902;50.816;12.828;2023-03-19T07:49:36;97616.91;;;9.39;100.00
30081;BME280;16902;50.816;12.828;2023-03-19T07:54:38;97620.69;;;9.51;100.00
30081;BME280;16902;50.816;12.828;2023-03-19T07:59:40;97622.25;;;10.19;100.00
30081;BME280;16902;50.816;12.828;2023-03-19T08:04:41;97621.75;;;10.75;100.00
30081;BME280;16902;50.816;12.828;2023-03-19T08:09:43;97624.00;;;11.21;100.00
30081;BME280;16902;50.816;12.828;2023-03-19T08:14:45;97628.38;;;11.63;100.00
30081;BME280;16902;50.816;12.828;2023-03-19T08:19:46;97631.91;;;12.05;100.00
30081;BME280;16902;50.816;12.828;2023-03-19T08:24:48;97631.00;;;12.26;100.00
30081;BME280;16902;50.816;12.828;2023-03-19T08:29:50;97636.72;;;12.43;100.00
30081;BME280;16902;50.816;12.828;2023-03-19T08:34:51;97630.13;;;12.53;100.00
30081;BME280;16902;50.816;12.828;2023-03-19T08:39:53;97635.75;;;12.57;100.00
30081;BME280;16902;50.816;12.828;2023-03-19T08:44:55;97643.19;;;12.60;100.00
30081;BME280;16902;50.816;12.828;2023-03-19T08:49:56;97642.50;;;12.93;100.00
30081;BME280;16902;50.816;12.828;2023-03-19T08:54:58;97634.09;;;13.04;100.00
30081;BME280;16902;50.816;12.828;2023-03-19T09:00:00;97639.50;;;13.09;100.00
30081;BME280;16902;50.816;12.828;2023-03-19T09:05:02;97639.75;;;13.21;100.00
30081;BME280;16902;50.816;12.828;2023-03-19T09:10:05;97634.75;;;13.26;100.00
30081;BME280;16902;50.816;12.828;2023-03-19T09:15:07;97636.56;;;13.52;100.00
30081;BME280;16902;50.816;12.828;2023-03-19T09:20:09;97636.72;;;13.97;100.00
30081;BME280;16902;50.816;12.828;2023-03-19T09:25:11;97637.94;;;14.01;100.00
30081;BME280;16902;50.816;12.828;2023-03-19T09:30:15;97646.72;;;14.33;100.00
30081;BME280;16902;50.816;12.828;2023-03-19T09:35:17;97641.47;;;15.23;100.00
30081;BME280;16902;50.816;12.828;2023-03-19T09:40:22;97647.81;;;15.15;100.00
30081;BME280;16902;50.816;12.828;2023-03-19T09:45:26;97650.53;;;15.27;100.00
30081;BME280;16902;50.816;12.828;2023-03-19T09:50:31;97647.56;;;15.23;100.00
30081;BME280;16902;50.816;12.828;2023-03-19T09:55:49;97650.88;;;15.37;100.00
30081;BME280;16902;50.816;12.828;2023-03-19T10:00:52;97647.13;;;15.51;100.00
30081;BME280;16902;50.816;12.828;2023-03-19T10:11:27;97647.38;;;15.75;100.00
30081;BME280;16902;50.816;12.828;2023-03-19T10:16:36;97645.56;;;15.75;100.00
30081;BME280;16902;50.816;12.828;2023-03-19T10:21:58;97657.09;;;16.36;100.00
30081;BME280;16902;50.816;12.828;2023-03-19T10:27:10;97642.06;;;16.06;100.00
30081;BME280;16902;50.816;12.828;2023-03-19T10:37:26;97641.25;;;16.79;100.00
30081;BME280;16902;50.816;12.828;2023-03-19T10:43:11;97641.16;;;16.86;100.00
30081;BME280;16902;50.816;12.828;2023-03-19T10:48:17;97642.03;;;17.10;100.00
30081;BME280;16902;50.816;12.828;2023-03-19T10:53:28;97644.25;;;17.25;100.00
30081;BME280;16902;50.816;12.828;2023-03-19T10:58:33;97648.91;;;17.11;100.00
30081;BME280;16902;50.816;12.828;2023-03-19T11:03:54;97648.22;;;17.45;100.00
30081;BME280;16902;50.816;12.828;2023-03-19T11:09:00;97655.63;;;17.37;100.00
30081;BME280;16902;50.816;12.828;2023-03-19T11:14:08;97652.94;;;17.55;100.00
30081;BME280;16902;50.816;12.828;2023-03-19T11:19:38;97658.19;;;17.13;100.00
30081;BME280;16902;50.816;12.828;2023-03-19T11:24:48;97653.13;;;16.82;100.00
30081;BME280;16902;50.816;12.828;2023-03-19T11:29:50;97657.44;;;16.58;100.00
30081;BME280;16902;50.816;12.828;2023-03-19T11:35:00;97655.69;;;17.60;100.00
30081;BME280;16902;50.816;12.828;2023-03-19T11:40:19;97650.63;;;18.41;100.00
30081;BME280;16902;50.816;12.828;2023-03-19T11:45:32;97649.47;;;19.63;100.00
30081;BME280;16902;50.816;12.828;2023-03-19T11:50:44;97645.88;;;20.24;100.00
30081;BME280;16902;50.816;12.828;2023-03-19T11:56:10;97657.31;;;19.91;100.00
30081;BME280;16902;50.816;12.828;2023-03-19T12:01:30;97648.97;;;20.16;100.00
30081;BME280;16902;50.816;12.828;2023-03-19T12:12:15;97646.91;;;18.77;100.00
30081;BME280;16902;50.816;12.828;2023-03-19T12:38:40;97663.94;;;16.92;100.00
30081;BME280;16902;50.816;12.828;2023-03-19T12:54:43;97671.66;;;17.05;100.00
30081;BME280;16902;50.816;12.828;2023-03-19T13:05:08;97664.16;;;15.74;100.00
30081;BME280;16902;50.816;12.828;2023-03-19T13:10:18;97675.56;;;15.29;100.00
30081;BME280;16902;50.816;12.828;2023-03-19T13:15:25;97669.16;;;14.80;100.00
30081;BME280;16902;50.816;12.828;2023-03-19T13:25:56;97672.56;;;14.87;100.00
30081;BME280;16902;50.816;12.828;2023-03-19T13:31:04;97668.09;;;14.30;100.00
30081;BME280;16902;50.816;12.828;2023-03-19T13:36:09;97673.09;;;14.38;100.00
30081;BME280;16902;50.816;12.828;2023-03-19T13:46:37;97682.22;;;14.22;100.00
30081;BME280;16902;50.816;12.828;2023-03-19T13:51:40;97681.22;;;14.23;100.00
30081;BME280;16902;50.816;12.828;2023-03-19T14:02:50;97689.69;;;13.72;100.00
30081;BME280;16902;50.816;12.828;2023-03-19T14:07:28;97693.66;;;13.22;100.00
30081;BME280;16902;50.816;12.828;2023-03-19T14:12:35;97690.56;;;13.05;100.00
30081;BME280;16902;50.816;12.828;2023-03-19T14:17:43;97697.75;;;12.90;100.00
30081;BME280;16902;50.816;12.828;2023-03-19T14:22:55;97695.00;;;12.56;100.00
30081;BME280;16902;50.816;12.828;2023-03-19T14:28:08;97698.41;;;12.16;100.00
30081;BME280;16902;50.816;12.828;2023-03-19T14:33:19;97693.06;;;11.96;100.00
30081;BME280;16902;50.816;12.828;2023-03-19T14:38:39;97697.63;;;11.94;100.00
30081;BME280;16902;50.816;12.828;2023-03-19T14:43:59;97700.00;;;11.89;100.00
30081;BME280;16902;50.816;12.828;2023-03-19T14:59:22;97693.19;;;11.23;100.00
30081;BME280;16902;50.816;12.828;2023-03-19T15:04:24;97693.38;;;11.22;100.00
30081;BME280;16902;50.816;12.828;2023-03-19T15:09:29;97690.19;;;11.26;100.00
30081;BME280;16902;50.816;12.828;2023-03-19T15:20:14;97689.63;;;11.10;100.00
30081;BME280;16902;50.816;12.828;2023-03-19T15:25:17;97685.59;;;11.07;100.00
30081;BME280;16902;50.816;12.828;2023-03-19T15:30:22;97688.69;;;10.96;100.00
30081;BME280;16902;50.816;12.828;2023-03-19T15:35:32;97683.19;;;11.05;100.00
30081;BME280;16902;50.816;12.828;2023-03-19T15:40:35;97684.25;;;11.11;100.00
30081;BME280;16902;50.816;12.828;2023-03-19T15:45:40;97681.97;;;11.23;100.00
30081;BME280;16902;50.816;12.828;2023-03-19T15:50:46;97682.84;;;11.51;100.00
30081;BME280;16902;50.816;12.828;2023-03-19T15:55:51;97687.59;;;11.69;100.00
30081;BME280;16902;50.816;12.828;2023-03-19T16:00:55;97685.53;;;11.65;100.00
30081;BME280;16902;50.816;12.828;2023-03-19T16:06:02;97682.13;;;11.64;100.00
30081;BME280;16902;50.816;12.828;2023-03-19T16:11:13;97689.38;;;11.69;100.00
30081;BME280;16902;50.816;12.828;2023-03-19T16:16:19;97686.03;;;11.75;100.00
30081;BME280;16902;50.816;12.828;2023-03-19T16:21:39;97689.22;;;11.70;100.00
30081;BME280;16902;50.816;12.828;2023-03-19T16:26:43;97686.25;;;11.52;100.00
30081;BME280;16902;50.816;12.828;2023-03-19T16:31:50;97690.53;;;11.38;100.00
30081;BME280;16902;50.816;12.828;2023-03-19T16:36:52;97696.59;;;11.24;100.00
30081;BME280;16902;50.816;12.828;2023-03-19T16:42:28;97699.56;;;10.99;100.00
30081;BME280;16902;50.816;12.828;2023-03-19T16:47:30;97699.13;;;10.81;100.00
30081;BME280;16902;50.816;12.828;2023-03-19T16:52:32;97699.44;;;10.57;100.00
30081;BME280;16902;50.816;12.828;2023-03-19T16:57:34;97707.88;;;10.44;100.00
30081;BME280;16902;50.816;12.828;2023-03-19T17:02:35;97701.31;;;10.48;100.00
30081;BME280;16902;50.816;12.828;2023-03-19T17:07:37;97713.16;;;10.21;100.00
30081;BME280;16902;50.816;12.828;2023-03-19T17:12:39;97710.13;;;9.94;100.00
30081;BME280;16902;50.816;12.828;2023-03-19T17:17:40;97718.16;;;9.70;100.00
30081;BME280;16902;50.816;12.828;2023-03-19T17:22:42;97711.34;;;9.46;100.00
30081;BME280;16902;50.816;12.828;2023-03-19T17:27:44;97709.38;;;9.25;100.00
30081;BME280;16902;50.816;12.828;2023-03-19T17:32:47;97709.53;;;9.00;100.00
30081;BME280;16902;50.816;12.828;2023-03-19T17:37:50;97716.94;;;8.81;100.00
30081;BME280;16902;50.816;12.828;2023-03-19T17:42:54;97724.31;;;8.61;100.00
30081;BME280;16902;50.816;12.828;2023-03-19T17:47:56;97725.25;;;8.68;100.00
30081;BME280;16902;50.816;12.828;2023-03-19T17:52:58;97730.84;;;8.40;100.00
30081;BME280;16902;50.816;12.828;2023-03-19T17:58:00;97726.81;;;8.21;100.00
30081;BME280;16902;50.816;12.828;2023-03-19T18:03:02;97724.44;;;8.04;100.00
30081;BME280;16902;50.816;12.828;2023-03-19T18:08:04;97722.63;;;7.88;100.00
30081;BME280;16902;50.816;12.828;2023-03-19T18:13:06;97720.25;;;7.70;100.00
30081;BME280;16902;50.816;12.828;2023-03-19T18:18:17;97729.94;;;7.52;100.00
30081;BME280;16902;50.816;12.828;2023-03-19T18:23:20;97734.44;;;7.33;100.00
30081;BME280;16902;50.816;12.828;2023-03-19T18:28:24;97728.91;;;7.12;100.00
30081;BME280;16902;50.816;12.828;2023-03-19T18:33:28;97741.31;;;6.92;100.00
30081;BME280;16902;50.816;12.828;2023-03-19T18:38:31;97734.50;;;6.83;100.00
30081;BME280;16902;50.816;12.828;2023-03-19T18:43:33;97738.94;;;6.64;100.00
30081;BME280;16902;50.816;12.828;2023-03-19T18:48:35;97733.81;;;6.73;100.00
30081;BME280;16902;50.816;12.828;2023-03-19T18:53:37;97739.78;;;6.73;100.00
30081;BME280;16902;50.816;12.828;2023-03-19T18:58:39;97743.50;;;6.70;100.00
30081;BME280;16902;50.816;12.828;2023-03-19T19:03:42;97747.34;;;6.66;100.00
30081;BME280;16902;50.816;12.828;2023-03-19T19:08:45;97757.09;;;6.73;100.00
30081;BME280;16902;50.816;12.828;2023-03-19T19:13:53;97765.91;;;6.54;100.00
30081;BME280;16902;50.816;12.828;2023-03-19T19:18:57;97771.41;;;6.33;100.00
30081;BME280;16902;50.816;12.828;2023-03-19T19:24:00;97778.56;;;6.13;100.00
30081;BME280;16902;50.816;12.828;2023-03-19T19:29:04;97774.81;;;6.07;100.00
30081;BME280;16902;50.816;12.828;2023-03-19T19:34:06;97785.84;;;5.91;100.00
30081;BME280;16902;50.816;12.828;2023-03-19T19:39:10;97780.97;;;5.71;100.00
30081;BME280;16902;50.816;12.828;2023-03-19T19:44:19;97779.63;;;5.49;100.00
30081;BME280;16902;50.816;12.828;2023-03-19T19:49:22;97780.22;;;5.43;100.00
30081;BME280;16902;50.816;12.828;2023-03-19T19:54:25;97790.97;;;5.38;100.00
30081;BME280;16902;50.816;12.828;2023-03-19T19:59:27;97794.91;;;5.42;100.00
30081;BME280;16902;50.816;12.828;2023-03-19T20:04:28;97799.91;;;5.44;100.00
30081;BME280;16902;50.816;12.828;2023-03-19T20:09:31;97796.59;;;5.69;100.00
30081;BME280;16902;50.816;12.828;2023-03-19T20:14:32;97803.09;;;5.73;100.00
30081;BME280;16902;50.816;12.828;2023-03-19T20:19:34;97809.59;;;5.77;100.00
30081;BME280;16902;50.816;12.828;2023-03-19T20:24:36;97801.69;;;5.79;100.00
30081;BME280;16902;50.816;12.828;2023-03-19T20:29:38;97792.75;;;5.55;100.00
30081;BME280;16902;50.816;12.828;2023-03-19T20:34:40;97797.22;;;5.35;100.00
30081;BME280;16902;50.816;12.828;2023-03-19T20:39:42;97798.47;;;5.13;100.00
30081;BME280;16902;50.816;12.828;2023-03-19T20:44:45;97793.91;;;4.98;100.00
30081;BME280;16902;50.816;12.828;2023-03-19T20:49:47;97803.56;;;4.96;100.00
30081;BME280;16902;50.816;12.828;2023-03-19T20:54:49;97802.72;;;5.05;100.00
30081;BME280;16902;50.816;12.828;2023-03-19T20:59:51;97809.34;;;5.07;100.00
30081;BME280;16902;50.816;12.828;2023-03-19T21:04:52;97802.03;;;5.03;100.00
30081;BME280;16902;50.816;12.828;2023-03-19T21:09:55;97801.38;;;5.01;100.00
30081;BME280;16902;50.816;12.828;2023-03-19T21:14:59;97805.44;;;5.03;100.00
30081;BME280;16902;50.816;12.828;2023-03-19T21:20:01;97807.88;;;5.32;100.00
30081;BME280;16902;50.816;12.828;2023-03-19T21:25:05;97807.06;;;5.50;100.00
30081;BME280;16902;50.816;12.828;2023-03-19T21:30:13;97806.63;;;5.54;100.00
30081;BME280;16902;50.816;12.828;2023-03-19T21:35:21;97802.06;;;5.48;100.00
30081;BME280;16902;50.816;12.828;2023-03-19T21:40:29;97801.00;;;5.41;100.00
30081;BME280;16902;50.816;12.828;2023-03-19T21:45:33;97806.47;;;5.56;100.00
30081;BME280;16902;50.816;12.828;2023-03-19T21:50:38;97810.38;;;5.42;100.00
30081;BME280;16902;50.816;12.828;2023-03-19T21:55:40;97806.56;;;5.64;100.00
30081;BME280;16902;50.816;12.828;2023-03-19T22:00:43;97810.75;;;5.83;100.00
30081;BME280;16902;50.816;12.828;2023-03-19T22:05:49;97806.00;;;6.32;100.00
30081;BME280;16902;50.816;12.828;2023-03-19T22:10:55;97804.94;;;6.16;100.00
30081;BME280;16902;50.816;12.828;2023-03-19T22:15:57;97796.78;;;6.29;100.00
30081;BME280;16902;50.816;12.828;2023-03-19T22:21:01;97793.94;;;6.14;100.00
30081;BME280;16902;50.816;12.828;2023-03-19T22:26:29;97797.56;;;5.86;100.00
30081;BME280;16902;50.816;12.828;2023-03-19T22:31:32;97798.00;;;5.63;100.00
30081;BME280;16902;50.816;12.828;2023-03-19T22:36:34;97812.41;;;5.66;100.00
30081;BME280;16902;50.816;12.828;2023-03-19T22:41:38;97815.03;;;5.74;100.00
30081;BME280;16902;50.816;12.828;2023-03-19T22:46:42;97802.16;;;5.92;100.00
30081;BME280;16902;50.816;12.828;2023-03-19T22:51:44;97807.31;;;6.36;100.00
30081;BME280;16902;50.816;12.828;2023-03-19T22:56:47;97815.03;;;6.54;100.00
30081;BME280;16902;50.816;12.828;2023-03-19T23:01:49;97814.59;;;6.58;100.00
30081;BME280;16902;50.816;12.828;2023-03-19T23:06:52;97805.50;;;6.88;100.00
30081;BME280;16902;50.816;12.828;2023-03-19T23:11:55;97807.28;;;6.88;100.00
30081;BME280;16902;50.816;12.828;2023-03-19T23:17:03;97803.16;;;6.69;100.00
30081;BME280;16902;50.816;12.828;2023-03-19T23:22:13;97804.69;;;6.54;100.00
30081;BME280;16902;50.816;12.828;2023-03-19T23:27:25;97810.00;;;6.52;100.00
30081;BME280;16902;50.816;12.828;2023-03-19T23:32:27;97819.06;;;6.48;100.00
30081;BME280;16902;50.816;12.828;2023-03-19T23:37:29;97812.47;;;6.62;100.00
30081;BME280;16902;50.816;12.828;2023-03-19T23:42:31;97818.06;;;6.75;100.00
30081;BME280;16902;50.816;12.828;2023-03-19T23:47:33;97820.69;;;6.83;100.00
30081;BME280;16902;50.816;12.828;2023-03-19T23:52:35;97822.00;;;7.21;100.00
30081;BME280;16902;50.816;12.828;2023-03-19T23:57:37;97829.44;;;7.25;100.00
